Time;durP1;ratioP1;P1;durP2;ratioP2;P2;SDS_P1;SDS_P2;PMS_P1;PMS_P2;Temp;Humidity;BMP_temperature;BMP_pressure;BME280_temperature;BME280_humidity;BME280_pressure;Samples;Min_cycle;Max_cycle;Signal;HPM_P1;HPM_P2
2022/06/12 00:00:25;;;;;;;7.20;5.83;;;18.90;79.60;;;;;;5005850;28;20197;-73
2022/06/12 00:02:51;;;;;;;11.70;7.40;;;18.90;79.70;;;;;;5010565;28;20431;-75
2022/06/12 00:05:20;;;;;;;11.23;7.03;;;18.90;79.70;;;;;;5005699;28;20560;-74
2022/06/12 00:07:46;;;;;;;9.03;7.37;;;18.90;79.70;;;;;;5005575;28;20462;-73
2022/06/12 00:10:12;;;;;;;10.30;6.77;;;18.90;79.60;;;;;;5019694;28;20556;-73
2022/06/12 00:12:41;;;;;;;10.03;7.00;;;18.90;79.60;;;;;;5020600;28;20231;-74
2022/06/12 00:15:08;;;;;;;9.63;7.10;;;18.90;79.60;;;;;;5011044;28;20451;-73
2022/06/12 00:17:34;;;;;;;10.10;7.30;;;18.90;79.70;;;;;;5011050;28;20459;-74
2022/06/12 00:20:00;;;;;;;13.37;8.40;;;19.00;79.90;;;;;;5013950;28;20428;-73
2022/06/12 00:22:26;;;;;;;10.53;7.60;;;19.00;79.70;;;;;;5016220;28;20246;-73
2022/06/12 00:24:51;;;;;;;13.30;7.53;;;18.80;80.00;;;;;;5011442;28;20482;-73
2022/06/12 00:27:18;;;;;;;9.10;6.73;;;18.70;80.60;;;;;;5008810;28;20209;-74
2022/06/12 00:29:47;;;;;;;11.00;7.03;;;18.70;80.60;;;;;;5014983;28;20263;-73
2022/06/12 00:32:15;;;;;;;10.80;7.13;;;18.70;80.50;;;;;;5012404;28;20428;-73
2022/06/12 00:34:47;;;;;;;10.57;7.37;;;18.70;80.60;;;;;;5009250;28;20434;-73
2022/06/12 00:37:13;;;;;;;8.50;6.20;;;18.70;80.50;;;;;;5006975;28;20476;-72
2022/06/12 00:39:41;;;;;;;7.33;5.60;;;18.60;80.90;;;;;;5011170;28;20875;-73
2022/06/12 00:42:09;;;;;;;8.90;6.40;;;18.50;80.90;;;;;;5015760;28;20422;-73
2022/06/12 00:44:41;;;;;;;7.57;6.23;;;18.50;80.80;;;;;;5017604;28;20535;-72
2022/06/12 00:47:10;;;;;;;13.67;7.70;;;18.50;80.80;;;;;;5011371;28;20421;-73
2022/06/12 00:49:46;;;;;;;11.00;7.40;;;18.50;81.10;;;;;;5009946;28;20977;-72
2022/06/12 00:52:18;;;;;;;10.87;7.40;;;18.50;81.40;;;;;;5009635;28;20431;-72
2022/06/12 00:54:49;;;;;;;13.97;8.50;;;18.60;81.10;;;;;;5010699;28;20479;-73
2022/06/12 00:57:16;;;;;;;11.93;6.93;;;18.60;80.90;;;;;;5002822;28;20597;-72
2022/06/12 00:59:53;;;;;;;9.37;6.63;;;18.40;81.40;;;;;;5015591;28;20449;-72
2022/06/12 01:02:25;;;;;;;10.67;7.00;;;18.40;81.50;;;;;;5011273;28;20416;-73
2022/06/12 01:07:38;;;;;;;11.67;7.30;;;18.30;81.80;;;;;;5008305;28;20541;-74
2022/06/12 01:10:08;;;;;;;7.33;6.03;;;18.30;81.90;;;;;;5016670;28;20449;-74
2022/06/12 01:12:37;;;;;;;8.20;6.53;;;18.30;81.90;;;;;;5010775;28;20509;-74
2022/06/12 01:15:15;;;;;;;8.37;6.23;;;18.20;82.10;;;;;;5006831;28;20444;-73
2022/06/12 01:17:43;;;;;;;10.77;6.83;;;18.20;82.20;;;;;;5003372;28;21005;-73
2022/06/12 01:20:13;;;;;;;10.53;6.50;;;18.10;82.10;;;;;;5010221;28;20475;-73
2022/06/12 01:23:11;;;;;;;8.20;6.03;;;18.20;82.20;;;;;;5017229;28;20430;-72
2022/06/12 01:26:14;;;;;;;12.23;6.93;;;18.10;82.50;;;;;;5006617;28;20427;-74
2022/06/12 01:28:47;;;;;;;11.10;7.07;;;18.10;82.40;;;;;;5006702;28;20587;-72
2022/06/12 01:31:13;;;;;;;9.70;6.40;;;18.10;82.70;;;;;;5013352;28;20449;-72
2022/06/12 01:34:15;;;;;;;10.10;5.50;;;18.00;82.50;;;;;;5010883;28;20450;-72
2022/06/12 01:36:44;;;;;;;9.30;6.17;;;18.00;82.70;;;;;;5010342;28;20196;-73
2022/06/12 01:39:25;;;;;;;10.60;6.40;;;18.00;82.40;;;;;;5016279;28;20510;-72
2022/06/12 01:42:06;;;;;;;7.23;5.40;;;18.00;82.40;;;;;;5012081;28;20428;-70
2022/06/12 01:44:50;;;;;;;9.80;7.07;;;18.00;82.40;;;;;;5011018;28;20555;-71
2022/06/12 01:47:37;;;;;;;11.27;7.40;;;18.00;82.70;;;;;;5019692;28;20468;-72
2022/06/12 01:50:39;;;;;;;9.20;6.87;;;18.10;82.80;;;;;;5007238;28;20407;-71
2022/06/12 01:53:31;;;;;;;9.50;7.37;;;18.10;82.40;;;;;;5019256;28;20408;-71
2022/06/12 01:56:16;;;;;;;9.40;6.67;;;18.10;82.20;;;;;;5014889;28;20426;-72
2022/06/12 01:59:24;;;;;;;13.20;7.10;;;18.10;82.50;;;;;;5016687;28;20536;-71
2022/06/12 02:01:57;;;;;;;8.90;5.73;;;17.90;82.50;;;;;;5009918;28;20435;-72
2022/06/12 02:04:31;;;;;;;8.40;6.00;;;17.90;83.00;;;;;;5018515;28;20454;-72
2022/06/12 02:07:43;;;;;;;7.73;6.10;;;17.80;83.10;;;;;;5024850;28;20407;-74
2022/06/12 02:10:12;;;;;;;7.43;5.37;;;17.70;83.10;;;;;;4991886;28;20504;-70
2022/06/12 02:15:50;;;;;;;8.10;5.03;;;17.70;83.40;;;;;;4994725;28;20477;-71
2022/06/12 02:18:20;;;;;;;7.27;5.40;;;17.70;83.30;;;;;;4988994;28;20583;-72
2022/06/12 02:21:02;;;;;;;6.40;5.53;;;17.70;83.10;;;;;;5004869;28;20840;-70
2022/06/12 02:23:37;;;;;;;7.10;5.23;;;17.80;82.80;;;;;;4995042;28;20414;-71
2022/06/12 02:26:05;;;;;;;6.87;5.43;;;17.80;82.70;;;;;;4986316;28;20421;-73
2022/06/12 02:28:45;;;;;;;8.57;6.00;;;17.70;82.40;;;;;;4997606;28;20457;-71
2022/06/12 02:31:23;;;;;;;8.20;6.13;;;17.70;82.80;;;;;;4992541;28;20414;-71
2022/06/12 02:33:59;;;;;;;8.90;6.07;;;17.70;83.00;;;;;;4996021;28;20440;-72
2022/06/12 02:36:31;;;;;;;8.23;6.30;;;17.70;82.80;;;;;;4997998;28;20463;-71
2022/06/12 02:39:21;;;;;;;9.40;5.83;;;17.70;83.30;;;;;;4990195;28;20470;-75
2022/06/12 02:42:01;;;;;;;7.83;5.90;;;17.70;83.30;;;;;;5016099;28;20437;-72
2022/06/12 02:44:36;;;;;;;9.60;6.47;;;17.50;83.60;;;;;;5011200;28;20475;-73
2022/06/12 02:47:08;;;;;;;10.80;6.83;;;17.60;83.70;;;;;;5007841;28;20434;-74
2022/06/12 02:49:37;;;;;;;9.70;5.83;;;17.50;83.70;;;;;;5018534;28;20429;-71
2022/06/12 02:52:37;;;;;;;9.27;6.83;;;17.50;83.70;;;;;;5013449;28;20824;-71
2022/06/12 02:55:11;;;;;;;9.00;6.77;;;17.40;84.00;;;;;;5012194;28;20483;-71
2022/06/12 02:57:46;;;;;;;11.93;7.20;;;17.40;84.10;;;;;;5010465;28;20475;-72
2022/06/12 03:00:29;;;;;;;7.93;5.50;;;17.30;84.40;;;;;;5011528;28;20496;-72
2022/06/12 03:03:15;;;;;;;7.03;5.53;;;17.30;84.70;;;;;;5010559;28;20435;-72
2022/06/12 03:05:43;;;;;;;6.50;5.37;;;17.30;84.60;;;;;;5015659;28;20511;-74
2022/06/12 03:08:21;;;;;;;6.70;6.10;;;17.30;84.60;;;;;;5010007;28;20452;-75
2022/06/12 03:11:05;;;;;;;11.57;6.20;;;17.30;84.40;;;;;;5010450;28;20423;-73
2022/06/12 03:13:31;;;;;;;9.57;6.70;;;17.20;84.40;;;;;;5012950;28;20929;-72
2022/06/12 03:16:24;;;;;;;10.23;6.30;;;17.30;84.40;;;;;;5011061;28;20511;-72
2022/06/12 03:18:58;;;;;;;9.87;6.20;;;17.20;84.60;;;;;;5008992;28;20505;-71
2022/06/12 03:22:09;;;;;;;7.43;5.43;;;17.20;84.90;;;;;;5012160;28;20882;-73
2022/06/12 03:24:40;;;;;;;8.77;5.90;;;17.20;84.70;;;;;;5011800;28;20473;-73
2022/06/12 03:27:25;;;;;;;8.43;5.90;;;17.30;84.60;;;;;;5013540;28;20461;-72
2022/06/12 03:30:29;;;;;;;9.00;5.93;;;17.30;84.40;;;;;;5010941;28;20451;-73
2022/06/12 03:33:09;;;;;;;6.70;5.50;;;17.20;84.60;;;;;;5020137;28;20947;-72
2022/06/12 03:35:48;;;;;;;8.47;5.87;;;17.20;84.60;;;;;;5008947;28;20443;-72
2022/06/12 03:38:28;;;;;;;10.00;6.67;;;17.20;84.60;;;;;;5014120;28;20519;-72
2022/06/12 03:41:11;;;;;;;9.93;6.93;;;17.20;84.70;;;;;;5015844;28;20511;-74
2022/06/12 03:43:59;;;;;;;7.80;6.60;;;17.10;84.90;;;;;;5011387;28;20468;-72
2022/06/12 03:46:34;;;;;;;7.80;6.30;;;17.10;85.30;;;;;;5012904;28;20441;-72
2022/06/12 03:49:05;;;;;;;10.80;7.40;;;17.10;85.30;;;;;;5008733;28;21016;-72
2022/06/12 03:51:54;;;;;;;8.67;6.80;;;17.00;85.60;;;;;;5011680;28;20427;-71
2022/06/12 03:54:26;;;;;;;12.53;7.30;;;17.00;85.90;;;;;;5020262;28;20435;-72
2022/06/12 03:59:55;;;;;;;10.77;6.93;;;16.90;86.50;;;;;;5008327;28;20896;-74
2022/06/12 04:02:25;;;;;;;10.13;7.23;;;16.90;86.60;;;;;;5016802;28;20435;-73
2022/06/12 04:04:53;;;;;;;8.97;6.77;;;16.80;86.60;;;;;;5013932;28;20856;-74
2022/06/12 04:07:22;;;;;;;16.00;6.73;;;16.80;86.60;;;;;;5006772;28;20470;-72
2022/06/12 04:09:52;;;;;;;10.00;7.40;;;16.90;86.50;;;;;;5013406;28;20552;-72
2022/06/12 04:12:25;;;;;;;10.70;7.03;;;16.90;86.30;;;;;;5009981;28;20417;-73
2022/06/12 04:15:38;;;;;;;9.03;6.63;;;17.00;86.50;;;;;;5011212;28;20460;-72
2022/06/12 04:18:04;;;;;;;10.53;7.03;;;17.00;86.60;;;;;;5014262;28;20483;-73
2022/06/12 04:20:59;;;;;;;13.07;6.90;;;17.00;86.50;;;;;;5018494;28;20935;-72
2022/06/12 04:23:35;;;;;;;9.60;7.20;;;17.00;86.50;;;;;;5020193;28;20439;-71
2022/06/12 04:26:20;;;;;;;14.40;8.80;;;17.00;86.30;;;;;;5018871;28;20548;-71
2022/06/12 04:28:53;;;;;;;11.47;6.90;;;17.10;86.00;;;;;;5014366;28;20479;-72
2022/06/12 04:31:20;;;;;;;11.17;7.53;;;17.10;86.20;;;;;;5020662;28;20428;-72
2022/06/12 04:33:55;;;;;;;9.27;7.40;;;17.10;86.00;;;;;;5021892;28;20433;-73
2022/06/12 04:36:21;;;;;;;11.47;7.90;;;17.10;86.00;;;;;;5001809;28;20549;-71
2022/06/12 04:38:47;;;;;;;11.10;8.23;;;17.10;86.20;;;;;;5002697;28;20469;-73
2022/06/12 04:41:23;;;;;;;14.40;8.30;;;17.10;86.00;;;;;;5019565;28;20520;-71
2022/06/12 04:43:49;;;;;;;13.00;7.37;;;17.20;85.90;;;;;;5028274;28;20464;-72
2022/06/12 04:46:15;;;;;;;12.80;7.20;;;17.20;85.90;;;;;;5028514;28;20450;-71
2022/06/12 04:48:43;;;;;;;10.40;8.00;;;17.20;85.70;;;;;;5023966;28;20223;-72
2022/06/12 04:51:10;;;;;;;11.47;7.70;;;17.20;85.90;;;;;;5021567;28;20423;-73
2022/06/12 04:53:37;;;;;;;11.50;7.57;;;17.30;85.70;;;;;;5027176;28;20813;-72
2022/06/12 04:56:04;;;;;;;11.07;7.67;;;17.30;85.60;;;;;;5010699;28;20427;-71
2022/06/12 04:58:30;;;;;;;11.77;7.47;;;17.30;85.60;;;;;;5008656;28;20483;-70
2022/06/12 05:00:56;;;;;;;10.90;7.57;;;17.30;85.60;;;;;;5015898;28;21077;-72
2022/06/12 05:03:22;;;;;;;10.27;7.77;;;17.40;85.50;;;;;;5009731;28;20424;-73
2022/06/12 05:05:49;;;;;;;11.97;7.63;;;17.40;85.30;;;;;;5011868;28;20415;-70
2022/06/12 05:08:16;;;;;;;8.70;6.97;;;17.40;85.50;;;;;;5008275;28;20532;-73
2022/06/12 05:10:42;;;;;;;11.27;7.87;;;17.50;85.30;;;;;;5013126;28;21299;-71
2022/06/12 05:13:08;;;;;;;10.90;7.43;;;17.60;85.00;;;;;;5019765;28;20495;-71
2022/06/12 05:15:34;;;;;;;14.23;8.20;;;17.70;85.00;;;;;;5010403;28;20529;-71
2022/06/12 05:18:00;;;;;;;13.80;7.93;;;17.80;84.90;;;;;;5008950;28;20515;-72
2022/06/12 05:20:30;;;;;;;10.20;7.40;;;17.80;84.60;;;;;;5010459;28;20427;-70
2022/06/12 05:22:56;;;;;;;12.40;7.67;;;17.90;84.60;;;;;;5016722;28;20820;-71
2022/06/12 05:25:23;;;;;;;14.00;7.40;;;18.10;84.00;;;;;;5012079;28;20520;-70
2022/06/12 05:27:50;;;;;;;8.83;7.10;;;18.20;83.40;;;;;;5012000;28;20457;-71
2022/06/12 05:30:22;;;;;;;8.93;6.70;;;18.30;83.10;;;;;;5020212;28;20896;-71
2022/06/12 05:32:50;;;;;;;11.70;7.77;;;18.40;82.70;;;;;;5019576;28;20474;-71
2022/06/12 05:35:16;;;;;;;14.57;7.90;;;18.40;82.50;;;;;;5016283;28;20477;-71
2022/06/12 05:37:42;;;;;;;10.20;7.63;;;18.40;82.50;;;;;;5021604;28;20474;-72
2022/06/12 05:40:13;;;;;;;11.97;8.33;;;18.40;82.20;;;;;;5019976;28;20928;-71
2022/06/12 05:42:38;;;;;;;14.80;8.23;;;18.40;82.40;;;;;;5016186;28;20510;-73
2022/06/12 05:45:12;;;;;;;12.80;8.30;;;18.50;82.50;;;;;;5018078;28;20547;-74
2022/06/12 05:48:01;;;;;;;10.90;8.03;;;18.60;82.40;;;;;;5022450;28;20526;-75
2022/06/12 05:50:30;;;;;;;10.73;8.13;;;18.60;82.10;;;;;;5020153;28;20473;-73
2022/06/12 05:52:56;;;;;;;11.10;7.67;;;18.70;81.80;;;;;;5015617;28;20525;-72
2022/06/12 05:55:23;;;;;;;14.60;7.73;;;18.80;81.40;;;;;;5016026;28;20824;-72
2022/06/12 05:57:49;;;;;;;10.13;7.27;;;18.80;80.60;;;;;;5011108;28;20215;-73
2022/06/12 06:00:20;;;;;;;12.33;8.47;;;18.90;80.50;;;;;;5015625;28;20431;-71
2022/06/12 06:02:45;;;;;;;11.03;8.13;;;18.90;80.00;;;;;;5015533;28;20424;-71
2022/06/12 06:05:12;;;;;;;13.20;7.77;;;19.00;80.00;;;;;;5015091;28;20467;-73
2022/06/12 06:07:38;;;;;;;9.00;6.93;;;19.10;79.70;;;;;;5016447;28;20254;-70
2022/06/12 06:10:09;;;;;;;12.07;7.50;;;19.10;79.20;;;;;;5014018;28;20442;-71
2022/06/12 06:12:34;;;;;;;10.67;7.97;;;19.30;79.20;;;;;;5012702;28;20921;-71
2022/06/12 06:15:00;;;;;;;12.37;7.63;;;19.40;78.30;;;;;;5013689;28;20551;-71
2022/06/12 06:17:26;;;;;;;10.97;7.50;;;19.50;78.10;;;;;;5010831;28;20214;-71
2022/06/12 06:19:52;;;;;;;14.13;7.80;;;19.50;78.30;;;;;;5027570;28;20190;-73
2022/06/12 06:22:18;;;;;;;9.50;6.83;;;19.60;78.30;;;;;;5012815;28;20236;-70
2022/06/12 06:24:45;;;;;;;11.40;7.77;;;19.80;77.80;;;;;;5019902;28;20787;-71
2022/06/12 06:27:13;;;;;;;10.67;8.20;;;19.70;77.60;;;;;;5012116;28;20811;-70
2022/06/12 06:29:39;;;;;;;11.70;6.83;;;19.80;77.10;;;;;;5018149;28;20843;-73
2022/06/12 06:32:05;;;;;;;14.47;7.73;;;19.90;77.30;;;;;;5017346;28;20422;-74
2022/06/12 06:34:31;;;;;;;9.53;7.33;;;20.00;77.10;;;;;;5018965;28;20240;-72
2022/06/12 06:36:57;;;;;;;14.60;8.50;;;20.00;76.40;;;;;;5012925;28;20943;-73
2022/06/12 06:39:23;;;;;;;11.40;7.60;;;20.10;76.10;;;;;;5020867;28;20476;-73
2022/06/12 06:41:49;;;;;;;10.10;6.70;;;20.20;76.10;;;;;;5018284;28;20449;-72
2022/06/12 06:46:59;;;;;;;9.10;6.90;;;20.40;74.90;;;;;;5012619;28;20922;-73
2022/06/12 06:49:25;;;;;;;10.13;7.20;;;20.50;74.90;;;;;;5011647;28;20524;-71
2022/06/12 06:51:51;;;;;;;10.30;6.83;;;20.60;74.20;;;;;;5009929;28;20196;-70
2022/06/12 06:54:18;;;;;;;11.00;8.03;;;20.70;73.70;;;;;;5011666;28;20439;-70
2022/06/12 06:56:46;;;;;;;9.70;7.13;;;20.80;72.90;;;;;;5012785;28;20432;-71
2022/06/12 06:59:12;;;;;;;9.57;6.27;;;20.80;72.90;;;;;;5010379;28;20801;-71
2022/06/12 07:01:38;;;;;;;13.77;7.70;;;20.90;73.00;;;;;;5009734;28;20426;-71
2022/06/12 07:04:03;;;;;;;8.13;6.47;;;21.00;72.30;;;;;;5022060;28;20473;-71
2022/06/12 07:06:30;;;;;;;11.17;7.00;;;21.20;71.30;;;;;;5017568;28;20652;-73
2022/06/12 07:08:56;;;;;;;8.10;6.67;;;21.30;71.30;;;;;;5010324;28;20213;-71
2022/06/12 07:11:24;;;;;;;8.93;6.63;;;21.20;71.00;;;;;;5023271;28;20427;-70
2022/06/12 07:13:51;;;;;;;9.30;6.50;;;21.20;71.40;;;;;;5013664;28;20585;-70
2022/06/12 07:16:17;;;;;;;10.40;6.60;;;21.20;71.40;;;;;;5020101;28;20792;-70
2022/06/12 07:18:44;;;;;;;7.70;6.50;;;21.40;71.10;;;;;;5012590;28;20914;-71
2022/06/12 07:21:10;;;;;;;13.77;6.30;;;21.50;71.30;;;;;;5014390;28;20790;-69
2022/06/12 07:23:36;;;;;;;7.80;6.20;;;21.60;70.50;;;;;;5016996;28;20955;-72
2022/06/12 07:26:06;;;;;;;10.00;6.53;;;21.70;69.70;;;;;;5017417;28;20427;-73
2022/06/12 07:28:34;;;;;;;9.57;6.70;;;21.70;69.10;;;;;;5014163;28;20985;-70
2022/06/12 07:31:01;;;;;;;9.97;6.63;;;21.80;69.20;;;;;;5022045;28;20470;-73
2022/06/12 07:33:26;;;;;;;8.03;6.33;;;21.90;69.50;;;;;;5012603;28;20428;-72
2022/06/12 07:35:52;;;;;;;10.77;6.50;;;22.00;69.40;;;;;;5020527;28;20454;-74
2022/06/12 07:38:22;;;;;;;8.87;6.67;;;22.10;69.20;;;;;;5010554;28;20263;-73
2022/06/12 07:40:53;;;;;;;9.13;6.80;;;22.20;68.80;;;;;;5013625;28;20555;-72
2022/06/12 07:43:20;;;;;;;9.17;6.80;;;22.20;68.80;;;;;;5016857;28;20433;-77
2022/06/12 07:45:46;;;;;;;11.10;6.50;;;22.40;68.50;;;;;;5021809;28;20556;-73
2022/06/12 07:48:12;;;;;;;9.87;6.17;;;22.40;68.20;;;;;;5014960;28;20502;-71
2022/06/12 07:50:41;;;;;;;11.30;6.83;;;22.50;67.70;;;;;;5018248;28;20422;-74
2022/06/12 07:53:08;;;;;;;7.83;6.30;;;22.50;67.70;;;;;;5016964;28;20180;-71
2022/06/12 07:55:34;;;;;;;9.93;6.00;;;22.50;67.00;;;;;;5016637;28;20986;-70
2022/06/12 07:58:00;;;;;;;9.60;6.77;;;22.60;67.00;;;;;;5011129;28;20836;-72
2022/06/12 08:00:26;;;;;;;10.70;6.07;;;22.70;66.40;;;;;;5013288;28;20438;-73
2022/06/12 08:02:52;;;;;;;7.00;6.03;;;22.80;66.10;;;;;;5015293;28;20669;-73
2022/06/12 08:05:19;;;;;;;7.00;5.87;;;23.00;66.40;;;;;;5018281;28;20473;-72
2022/06/12 08:07:45;;;;;;;10.10;6.40;;;23.10;65.70;;;;;;5024710;28;20199;-74
2022/06/12 08:10:12;;;;;;;7.87;6.53;;;23.10;65.10;;;;;;5013714;28;20585;-75
2022/06/12 08:12:40;;;;;;;10.70;6.77;;;23.20;65.30;;;;;;5018444;28;20175;-78
2022/06/12 08:15:10;;;;;;;9.90;6.83;;;23.20;65.30;;;;;;5016816;28;20505;-75
2022/06/12 08:17:36;;;;;;;7.63;6.30;;;23.30;65.60;;;;;;5015073;28;20471;-78
2022/06/12 08:22:48;;;;;;;8.40;6.70;;;23.50;64.20;;;;;;5013669;28;20198;-77
2022/06/12 08:25:14;;;;;;;9.90;7.23;;;23.60;63.90;;;;;;5016829;28;20471;-75
2022/06/12 08:27:39;;;;;;;10.10;6.50;;;23.60;63.80;;;;;;5012947;28;20455;-74
2022/06/12 08:30:07;;;;;;;10.93;6.53;;;23.70;64.10;;;;;;5025721;28;20179;-76
2022/06/12 08:32:33;;;;;;;9.83;6.10;;;23.70;63.50;;;;;;5023738;28;20184;-77
2022/06/12 08:35:05;;;;;;;8.13;5.97;;;23.70;63.70;;;;;;5015126;28;20435;-75
2022/06/12 08:37:34;;;;;;;9.23;6.70;;;23.80;62.60;;;;;;5008983;28;20510;-76
2022/06/12 08:40:00;;;;;;;8.90;5.67;;;23.80;62.60;;;;;;5013920;28;20430;-75
2022/06/12 08:42:51;;;;;;;7.67;6.20;;;23.80;62.30;;;;;;5012098;28;20906;-76
2022/06/12 08:45:24;;;;;;;9.33;7.13;;;24.00;61.90;;;;;;5011691;28;20456;-77
2022/06/12 08:48:01;;;;;;;9.03;5.73;;;24.00;61.50;;;;;;5011519;28;21332;-76
2022/06/12 08:50:46;;;;;;;7.93;5.10;;;24.10;60.60;;;;;;5013263;28;20435;-75
2022/06/12 08:53:23;;;;;;;7.43;5.37;;;24.20;59.20;;;;;;5006466;28;20431;-76
2022/06/12 08:55:59;;;;;;;9.50;6.20;;;24.20;57.30;;;;;;5014573;28;20914;-75
2022/06/12 08:58:31;;;;;;;6.13;5.07;;;24.20;58.90;;;;;;5008151;28;20982;-75
2022/06/12 09:00:59;;;;;;;8.60;5.40;;;24.40;58.90;;;;;;5016982;28;20463;-78
2022/06/12 09:03:28;;;;;;;10.33;5.50;;;24.40;57.20;;;;;;5012957;28;20452;-75
2022/06/12 09:05:57;;;;;;;9.23;6.30;;;24.50;58.20;;;;;;5009750;28;20461;-76
2022/06/12 09:08:36;;;;;;;11.17;8.17;;;24.50;58.10;;;;;;5007762;28;20488;-77
2022/06/12 09:11:14;;;;;;;12.90;8.67;;;24.60;58.50;;;;;;5010518;28;20454;-75
2022/06/12 09:14:37;;;;;;;9.57;7.13;;;24.60;58.40;;;;;;5009879;28;20448;-77
2022/06/12 09:17:40;;;;;;;7.70;6.00;;;24.80;56.90;;;;;;5003303;28;20410;-78
2022/06/12 09:20:14;;;;;;;8.20;5.60;;;24.70;56.10;;;;;;4991126;28;20433;-76
2022/06/12 09:22:54;;;;;;;7.30;5.37;;;24.80;55.70;;;;;;5009435;28;20417;-76
2022/06/12 09:25:43;;;;;;;10.10;6.03;;;25.00;54.80;;;;;;4999009;28;20459;-76
2022/06/12 09:28:29;;;;;;;10.00;5.60;;;25.00;54.90;;;;;;4998171;28;21015;-75
2022/06/12 09:30:55;;;;;;;6.43;5.70;;;25.10;54.60;;;;;;5000126;28;20513;-77
2022/06/12 09:33:32;;;;;;;7.40;5.13;;;25.30;53.70;;;;;;4997307;28;20506;-75
2022/06/12 09:36:30;;;;;;;11.70;5.40;;;25.40;53.80;;;;;;4995783;28;20596;-79
2022/06/12 09:39:22;;;;;;;6.10;4.67;;;25.40;54.40;;;;;;4966773;28;20889;-77
2022/06/12 09:42:03;;;;;;;7.90;5.67;;;25.50;54.90;;;;;;4995293;28;20430;-75
2022/06/12 09:45:00;;;;;;;6.83;5.20;;;25.60;54.00;;;;;;4993449;28;20456;-75
2022/06/12 09:47:46;;;;;;;9.30;6.47;;;25.70;53.70;;;;;;4995378;28;20552;-79
2022/06/12 09:50:27;;;;;;;7.73;5.67;;;25.80;53.40;;;;;;5020363;28;20430;-75
2022/06/12 09:53:18;;;;;;;9.63;5.67;;;25.90;53.40;;;;;;5010974;28;20435;-75
2022/06/12 09:55:57;;;;;;;10.40;5.67;;;26.00;52.90;;;;;;5014820;28;20430;-75
2022/06/12 09:58:40;;;;;;;7.80;5.70;;;26.10;52.10;;;;;;5017411;28;20521;-75
2022/06/12 10:01:22;;;;;;;6.10;5.53;;;26.00;52.50;;;;;;5002658;28;20462;-74
2022/06/12 10:03:50;;;;;;;9.47;6.50;;;26.00;52.40;;;;;;5014446;28;20779;-77
2022/06/12 10:06:25;;;;;;;7.20;5.20;;;26.10;51.70;;;;;;5013058;28;20435;-77
2022/06/12 10:08:59;;;;;;;9.20;5.40;;;26.10;51.30;;;;;;5006607;28;20490;-76
2022/06/12 10:11:33;;;;;;;7.93;6.13;;;26.10;52.20;;;;;;5019259;28;20507;-76
2022/06/12 10:14:08;;;;;;;8.53;6.00;;;26.30;51.60;;;;;;5015556;28;21036;-77
2022/06/12 10:16:40;;;;;;;8.50;5.10;;;26.40;50.50;;;;;;5017637;28;20466;-76
2022/06/12 10:19:15;;;;;;;7.07;4.03;;;26.70;49.70;;;;;;5014634;28;20463;-76
2022/06/12 10:21:45;;;;;;;7.60;5.80;;;26.90;49.40;;;;;;5016371;28;21054;-74
2022/06/12 10:24:11;;;;;;;6.17;5.00;;;27.10;48.50;;;;;;5011737;28;20522;-77
2022/06/12 10:26:37;;;;;;;6.77;5.57;;;27.20;48.10;;;;;;5013473;28;20439;-78
2022/06/12 10:29:13;;;;;;;8.23;5.43;;;27.20;48.50;;;;;;5010924;28;20510;-76
2022/06/12 10:31:49;;;;;;;6.77;5.63;;;27.30;48.30;;;;;;5010085;28;20982;-78
2022/06/12 10:34:21;;;;;;;9.80;5.00;;;27.40;47.50;;;;;;5012403;28;20485;-78
2022/06/12 10:36:47;;;;;;;5.97;5.30;;;27.10;48.70;;;;;;5016906;28;20422;-75
2022/06/12 10:39:21;;;;;;;5.50;4.90;;;27.10;48.30;;;;;;5018192;28;20460;-74
2022/06/12 10:41:49;;;;;;;6.97;5.30;;;27.30;48.70;;;;;;5022938;28;20513;-73
2022/06/12 10:44:53;;;;;;;6.27;5.30;;;27.70;47.50;;;;;;5023077;28;20963;-73
2022/06/12 10:47:22;;;;;;;6.23;5.67;;;28.00;47.70;;;;;;5009110;28;20987;-73
2022/06/12 10:50:00;;;;;;;5.80;5.50;;;28.70;45.80;;;;;;5019764;28;20932;-75
2022/06/12 10:52:26;;;;;;;9.07;5.20;;;29.30;44.90;;;;;;5018496;28;20486;-76
2022/06/12 10:54:52;;;;;;;6.30;4.73;;;29.60;43.50;;;;;;5014442;28;20448;-75
2022/06/12 10:57:42;;;;;;;6.40;4.73;;;29.60;43.70;;;;;;5011627;28;20209;-77
2022/06/12 11:00:15;;;;;;;6.40;5.20;;;29.60;44.50;;;;;;5016731;28;20194;-76
2022/06/12 11:03:13;;;;;;;7.43;4.97;;;29.50;43.50;;;;;;5018784;28;20421;-77
2022/06/12 11:06:12;;;;;;;5.87;5.17;;;29.40;43.80;;;;;;5025904;28;20519;-77
2022/06/12 11:08:57;;;;;;;5.73;5.00;;;29.50;43.90;;;;;;5011882;28;20795;-76
2022/06/12 11:11:48;;;;;;;6.23;4.70;;;29.80;42.70;;;;;;5014500;28;20429;-77
2022/06/12 11:14:14;;;;;;;7.23;5.87;;;29.90;43.20;;;;;;5017013;28;20428;-75
2022/06/12 11:17:10;;;;;;;9.30;6.10;;;30.10;42.80;;;;;;5020404;28;20433;-79
2022/06/12 11:19:39;;;;;;;9.57;5.63;;;30.00;43.20;;;;;;5016185;28;20217;-77
2022/06/12 11:22:33;;;;;;;5.93;5.17;;;30.00;42.70;;;;;;5016458;28;20521;-79
2022/06/12 11:25:08;;;;;;;8.70;5.80;;;30.30;42.60;;;;;;5014584;28;20479;-77
2022/06/12 11:28:11;;;;;;;7.73;5.00;;;30.90;42.20;;;;;;5018499;28;21019;-76
2022/06/12 11:30:58;;;;;;;8.23;5.37;;;31.50;41.00;;;;;;5014093;28;20440;-76
2022/06/12 11:33:34;;;;;;;8.03;5.00;;;31.50;40.00;;;;;;5017557;28;20421;-76
2022/06/12 11:36:21;;;;;;;7.03;5.33;;;30.00;41.40;;;;;;5019489;28;20429;-76
2022/06/12 11:38:50;;;;;;;6.90;5.30;;;28.80;44.50;;;;;;5015381;28;20452;-75
2022/06/12 11:41:37;;;;;;;8.43;4.73;;;28.40;44.90;;;;;;5016200;28;20451;-79
2022/06/12 11:44:27;;;;;;;7.47;5.53;;;28.30;45.70;;;;;;5017029;28;21062;-78
2022/06/12 11:46:56;;;;;;;6.20;5.10;;;28.70;44.90;;;;;;5012667;28;20421;-74
2022/06/12 11:49:24;;;;;;;6.03;5.10;;;28.60;44.60;;;;;;5013861;28;20510;-74
2022/06/12 11:52:23;;;;;;;6.53;4.43;;;29.10;44.10;;;;;;5014096;28;21021;-73
2022/06/12 11:55:17;;;;;;;9.23;5.17;;;29.90;42.40;;;;;;4999700;28;20438;-73
2022/06/12 11:58:11;;;;;;;6.93;5.20;;;29.90;42.00;;;;;;5011869;28;20463;-74
2022/06/12 12:00:42;;;;;;;7.70;5.40;;;30.20;41.90;;;;;;5013394;28;20432;-74
2022/06/12 12:03:18;;;;;;;6.53;5.47;;;29.80;42.00;;;;;;5017380;28;20457;-73
2022/06/12 12:05:55;;;;;;;7.70;6.00;;;29.40;43.00;;;;;;5014885;28;20493;-73
2022/06/12 12:08:57;;;;;;;5.53;5.07;;;29.50;42.80;;;;;;5006900;28;20511;-73
2022/06/12 12:11:26;;;;;;;5.43;4.97;;;29.50;43.10;;;;;;5011784;28;20424;-74
2022/06/12 12:13:55;;;;;;;8.70;5.27;;;29.30;43.10;;;;;;5009114;28;20838;-72
2022/06/12 12:16:30;;;;;;;8.10;5.30;;;29.30;43.40;;;;;;5013848;28;20420;-73
2022/06/12 12:19:16;;;;;;;6.37;4.73;;;29.10;43.40;;;;;;5013434;28;20517;-74
2022/06/12 12:21:49;;;;;;;7.70;5.17;;;29.10;43.80;;;;;;5013860;28;20420;-73
2022/06/12 12:24:21;;;;;;;7.73;5.00;;;29.00;44.10;;;;;;5012860;28;20479;-73
2022/06/12 12:26:49;;;;;;;5.93;4.87;;;29.20;43.90;;;;;;5017030;28;20437;-74
2022/06/12 12:29:20;;;;;;;6.07;4.90;;;29.30;43.50;;;;;;5015749;28;20487;-74
2022/06/12 12:31:47;;;;;;;5.93;4.73;;;29.50;42.80;;;;;;5014337;28;20441;-73
2022/06/12 12:34:14;;;;;;;7.33;5.10;;;29.40;43.00;;;;;;5014677;28;20429;-74
2022/06/12 12:42:31;;;;;;;6.23;4.43;;;29.00;43.80;;;;;;5013279;28;20423;-74
2022/06/12 12:45:29;;;;;;;6.90;4.80;;;29.00;43.50;;;;;;5011208;28;20467;-73
2022/06/12 12:48:03;;;;;;;5.00;4.63;;;28.50;44.90;;;;;;5014693;28;20464;-73
2022/06/12 12:50:40;;;;;;;8.37;4.70;;;28.80;44.70;;;;;;5019873;28;20433;-75
2022/06/12 12:53:06;;;;;;;5.83;5.53;;;29.10;44.10;;;;;;5015339;28;20421;-74
2022/06/12 12:55:42;;;;;;;5.47;4.70;;;29.50;43.10;;;;;;5010289;28;20994;-75
2022/06/12 12:58:20;;;;;;;13.07;9.30;;;29.40;42.70;;;;;;5006773;28;20478;-73
2022/06/12 13:00:47;;;;;;;8.40;5.80;;;29.00;44.10;;;;;;5010069;28;20441;-72
2022/06/12 13:03:29;;;;;;;6.47;5.03;;;29.20;43.80;;;;;;5014062;28;20486;-74
2022/06/12 13:06:20;;;;;;;8.77;4.93;;;29.50;43.10;;;;;;5012234;28;20464;-73
2022/06/12 13:09:11;;;;;;;8.27;5.37;;;29.60;42.40;;;;;;5005621;28;20856;-73
2022/06/12 13:12:02;;;;;;;7.20;5.20;;;29.90;42.30;;;;;;5009193;28;20461;-72
2022/06/12 13:14:54;;;;;;;14.33;10.47;;;29.80;42.00;;;;;;5004695;28;20425;-73
2022/06/12 13:17:35;;;;;;;8.77;4.60;;;30.60;41.40;;;;;;5002821;28;21324;-73
2022/06/12 13:20:20;;;;;;;6.10;4.47;;;30.70;40.70;;;;;;5010381;28;20816;-74
2022/06/12 13:23:01;;;;;;;8.77;4.57;;;30.40;41.10;;;;;;5006942;28;20424;-74
2022/06/12 13:25:58;;;;;;;5.20;4.00;;;29.50;43.00;;;;;;5017502;28;20475;-74
2022/06/12 13:28:27;;;;;;;4.63;4.33;;;29.40;43.40;;;;;;5012500;28;20479;-74
2022/06/12 13:30:54;;;;;;;8.10;4.77;;;29.70;42.70;;;;;;5011467;28;20831;-73
2022/06/12 13:33:28;;;;;;;5.40;4.53;;;29.50;43.70;;;;;;5010573;28;20486;-74
2022/06/12 13:35:58;;;;;;;6.80;4.90;;;29.80;43.40;;;;;;5016201;28;20816;-73
2022/06/12 13:38:25;;;;;;;5.37;4.40;;;29.90;43.10;;;;;;5020918;28;20473;-73
2022/06/12 13:41:01;;;;;;;8.67;5.20;;;29.40;44.10;;;;;;5018763;28;20507;-73